createdAt,value
2023-03-13T00:01:21.169Z,2.84
2023-03-13T00:03:52.307Z,2.81
2023-03-13T00:06:25.734Z,2.78
2023-03-13T00:08:54.596Z,2.77
2023-03-13T00:11:21.075Z,2.76
2023-03-13T00:13:53.113Z,2.72
2023-03-13T00:16:19.485Z,2.69
2023-03-13T00:18:53.026Z,2.63
2023-03-13T00:21:29.893Z,2.61
2023-03-13T00:23:57.783Z,2.59
2023-03-13T00:26:25.146Z,2.58
2023-03-13T00:28:55.837Z,2.55
2023-03-13T00:31:23.517Z,2.53
2023-03-13T00:33:52.917Z,2.51
2023-03-13T00:36:20.900Z,2.50
2023-03-13T00:38:48.454Z,2.51
2023-03-13T00:41:19.127Z,2.53
2023-03-13T00:43:48.902Z,2.52
2023-03-13T00:46:17.493Z,2.48
2023-03-13T00:48:44.276Z,2.47
2023-03-13T00:51:12.451Z,2.47
2023-03-13T00:53:44.058Z,2.48
2023-03-13T00:56:14.166Z,2.46
2023-03-13T00:58:45.940Z,2.46
2023-03-13T01:01:21.330Z,2.46
2023-03-13T01:03:51.737Z,2.47
2023-03-13T01:06:24.406Z,2.46
2023-03-13T01:08:50.921Z,2.45
2023-03-13T03:28:51.973Z,2.91
2023-03-13T03:31:18.842Z,2.90
2023-03-13T03:33:48.307Z,2.94
2023-03-13T03:36:20.642Z,2.95
2023-03-13T03:38:47.865Z,2.97
2023-03-13T03:41:18.471Z,2.98
2023-03-13T03:43:49.896Z,2.99
2023-03-13T03:46:21.523Z,3.05
2023-03-13T03:48:51.006Z,3.08
2023-03-13T03:51:21.728Z,3.09
2023-03-13T03:53:48.287Z,3.11
2023-03-13T03:56:17.776Z,3.13
2023-03-13T03:58:47.915Z,3.14
2023-03-13T04:01:28.454Z,3.16
2023-03-13T04:03:57.644Z,3.17
2023-03-13T04:06:29.014Z,3.20
2023-03-13T04:08:56.012Z,3.22
2023-03-13T04:11:31.508Z,3.24
2023-03-13T04:14:02.932Z,3.25
2023-03-13T04:16:32.178Z,3.26
2023-03-13T04:19:01.731Z,3.26
2023-03-13T04:21:30.772Z,3.27
2023-03-13T04:24:04.903Z,3.29
2023-03-13T04:26:32.780Z,3.29
2023-03-13T04:28:59.470Z,3.26
2023-03-13T04:31:47.210Z,3.28
2023-03-13T04:34:37.768Z,3.30
2023-03-13T04:37:39.489Z,3.32
2023-03-13T04:40:26.371Z,3.33
2023-03-13T04:43:15.722Z,3.29
2023-03-13T04:46:17.954Z,3.34
2023-03-13T04:49:03.010Z,3.34
2023-03-13T04:51:40.824Z,3.36
2023-03-13T04:54:17.594Z,3.41
2023-03-13T04:57:02.280Z,3.42
2023-03-13T04:59:40.422Z,3.43
2023-03-13T05:02:09.444Z,3.44
2023-03-13T05:05:01.564Z,3.46
2023-03-13T05:07:46.341Z,3.46
2023-03-13T05:10:41.213Z,3.49
2023-03-13T05:13:26.314Z,3.51
2023-03-13T05:16:02.188Z,3.53
2023-03-13T05:18:55.999Z,3.55
2023-03-13T05:21:43.510Z,3.56
2023-03-13T05:24:24.340Z,3.58
2023-03-13T05:27:09.855Z,3.60
2023-03-13T05:29:48.078Z,3.61
2023-03-13T05:32:32.624Z,3.62
2023-03-13T05:35:22.672Z,3.64
2023-03-13T05:38:09.780Z,3.67
2023-03-13T05:40:51.294Z,3.68
2023-03-13T05:43:50.421Z,3.71
2023-03-13T05:46:30.368Z,3.74
2023-03-13T05:49:15.714Z,3.76
2023-03-13T05:52:14.598Z,3.79
2023-03-13T05:54:48.800Z,3.81
2023-03-13T05:57:28.464Z,3.85
2023-03-13T06:00:01.923Z,3.87
2023-03-13T06:02:43.404Z,3.90
2023-03-13T06:05:18.616Z,3.93
2023-03-13T06:07:46.311Z,3.96
2023-03-13T06:10:15.066Z,3.99
2023-03-13T06:12:41.807Z,4.01
2023-03-13T06:15:13.475Z,4.06
2023-03-13T06:18:01.365Z,4.10
2023-03-13T06:20:32.848Z,4.13
2023-03-13T06:22:59.493Z,4.11
2023-03-13T06:25:28.720Z,4.17
2023-03-13T06:27:57.331Z,4.23
2023-03-13T06:30:24.116Z,4.28
2023-03-13T06:32:53.596Z,4.32
2023-03-13T06:35:20.276Z,4.37
2023-03-13T06:37:52.698Z,4.39
2023-03-13T06:40:20.397Z,4.43
2023-03-13T06:42:49.381Z,4.47
2023-03-13T06:45:16.048Z,4.52
2023-03-13T06:47:45.151Z,4.56
2023-03-13T06:50:11.693Z,4.60
2023-03-13T06:52:44.234Z,4.65
2023-03-13T06:55:15.804Z,4.69
2023-03-13T06:57:42.538Z,4.72
2023-03-13T07:00:11.989Z,4.77
2023-03-13T07:02:43.359Z,4.82
2023-03-13T07:05:15.933Z,4.86
2023-03-13T07:07:44.822Z,4.89
2023-03-13T07:10:18.154Z,4.94
2023-03-13T07:12:44.716Z,4.99
2023-03-13T07:15:15.886Z,5.02
2023-03-13T07:17:43.018Z,5.08
2023-03-13T07:20:12.350Z,5.13
2023-03-13T07:22:41.673Z,5.16
2023-03-13T07:25:09.106Z,5.19
2023-03-13T07:27:37.918Z,5.21
2023-03-13T07:30:05.072Z,5.24
2023-03-13T07:32:32.627Z,5.28
2023-03-13T07:35:03.758Z,5.31
2023-03-13T07:37:30.285Z,5.36
2023-03-13T07:39:58.565Z,5.40
2023-03-13T07:42:26.300Z,5.46
2023-03-13T07:44:58.573Z,5.53
2023-03-13T07:47:25.090Z,5.60
2023-03-13T07:49:54.281Z,5.65
2023-03-13T07:52:23.285Z,5.65
2023-03-13T07:54:54.571Z,5.71
2023-03-13T07:57:25.563Z,5.75
2023-03-13T07:59:54.392Z,5.79
2023-03-13T08:02:25.730Z,5.85
2023-03-13T08:04:54.701Z,5.93
2023-03-13T08:07:26.792Z,6.01
2023-03-13T08:09:59.288Z,6.09
2023-03-13T08:12:28.430Z,6.16
2023-03-13T08:14:59.858Z,6.24
2023-03-13T08:17:31.980Z,6.32
2023-03-13T08:20:00.824Z,6.38
2023-03-13T08:22:27.391Z,6.41
2023-03-13T08:24:54.347Z,6.46
2023-03-13T08:27:23.310Z,6.59
2023-03-13T08:29:49.721Z,6.72
2023-03-13T08:32:22.481Z,6.86
2023-03-13T08:34:49.089Z,7.00
2023-03-13T08:37:19.016Z,7.12
2023-03-13T08:39:49.428Z,7.18
2023-03-13T08:42:17.983Z,7.27
2023-03-13T08:44:47.032Z,7.33
2023-03-13T08:47:21.407Z,7.37
2023-03-13T08:49:48.224Z,7.44
2023-03-13T08:52:15.021Z,7.50
2023-03-13T08:54:44.271Z,7.58
2023-03-13T08:57:17.145Z,7.64
2023-03-13T08:59:44.763Z,7.67
2023-03-13T09:02:19.380Z,7.68
2023-03-13T09:04:58.132Z,7.70
2023-03-13T09:07:25.224Z,7.72
2023-03-13T09:09:52.560Z,7.76
2023-03-13T09:12:30.368Z,7.80
2023-03-13T09:14:57.710Z,7.83
2023-03-13T09:17:25.996Z,7.86
2023-03-13T09:20:00.492Z,7.86
2023-03-13T09:29:46.749Z,8.11
2023-03-13T09:32:13.549Z,8.19
2023-03-13T09:34:45.466Z,8.27
2023-03-13T09:37:19.988Z,8.35
2023-03-13T09:39:57.395Z,8.40
2023-03-13T09:42:59.869Z,8.45
2023-03-13T09:45:46.799Z,8.52
2023-03-13T09:48:36.275Z,8.59
2023-03-13T09:51:11.401Z,8.66
2023-03-13T09:53:49.849Z,8.74
2023-03-13T09:56:31.380Z,8.79
2023-03-13T09:59:24.304Z,8.81
2023-03-13T10:02:00.023Z,8.82
2023-03-13T10:04:29.218Z,8.85
2023-03-13T10:06:58.874Z,8.87
2023-03-13T10:09:32.925Z,8.99
2023-03-13T10:12:15.159Z,9.08
2023-03-13T10:15:20.115Z,9.10
2023-03-13T10:17:58.125Z,9.08
2023-03-13T10:20:35.969Z,9.11
2023-03-13T10:23:19.127Z,9.14
2023-03-13T10:25:48.796Z,9.17
2023-03-13T10:28:22.157Z,9.20
2023-03-13T10:30:53.681Z,9.27
2023-03-13T10:33:27.709Z,9.29
2023-03-13T10:36:14.653Z,9.31
2023-03-13T10:38:54.189Z,9.33
2023-03-13T10:41:35.923Z,9.30
2023-03-13T10:44:17.322Z,9.28
2023-03-13T10:46:47.137Z,9.32
2023-03-13T10:49:23.510Z,9.36
2023-03-13T10:51:56.045Z,9.40
2023-03-13T10:54:25.698Z,9.43
2023-03-13T10:57:08.764Z,9.45
2023-03-13T10:59:45.669Z,9.52
2023-03-13T11:02:38.963Z,9.54
2023-03-13T11:05:47.976Z,9.51
2023-03-13T11:08:18.033Z,9.51
2023-03-13T11:10:52.449Z,9.52
2023-03-13T11:13:42.366Z,9.54
2023-03-13T11:16:22.392Z,9.57
2023-03-13T11:19:12.277Z,9.57
2023-03-13T11:22:00.616Z,9.66
2023-03-13T11:24:48.143Z,9.72
2023-03-13T11:27:22.426Z,9.68
2023-03-13T11:30:05.855Z,9.65
2023-03-13T11:32:47.019Z,9.63
2023-03-13T11:35:42.170Z,9.62
2023-03-13T11:38:39.175Z,9.60
2023-03-13T11:41:17.216Z,9.58
2023-03-13T11:44:11.201Z,9.56
2023-03-13T11:46:52.654Z,9.53
2023-03-13T11:49:49.982Z,9.48
2023-03-13T11:52:36.598Z,9.44
2023-03-13T11:55:30.884Z,9.41
2023-03-13T11:58:15.980Z,9.39
2023-03-13T12:01:05.553Z,9.37
2023-03-13T12:03:53.796Z,9.35
2023-03-13T12:06:31.806Z,9.32
2023-03-13T12:09:32.651Z,9.32
2023-03-13T12:12:23.027Z,9.30
2023-03-13T12:15:04.177Z,9.30
2023-03-13T12:17:36.175Z,9.30
2023-03-13T12:20:23.472Z,9.30
2023-03-13T12:23:23.493Z,9.31
2023-03-13T12:25:57.900Z,9.29
2023-03-13T12:28:33.448Z,9.28
2023-03-13T12:31:08.454Z,9.28
2023-03-13T12:33:47.469Z,9.25
2023-03-13T12:36:28.684Z,9.22
2023-03-13T12:39:19.822Z,9.18
2023-03-13T12:42:21.428Z,9.19
2023-03-13T12:44:48.025Z,9.18
2023-03-13T12:48:15.152Z,9.16
2023-03-13T12:50:53.755Z,9.14
2023-03-13T12:53:46.922Z,9.13
2023-03-13T12:56:51.281Z,9.11
2023-03-13T12:59:43.409Z,9.08
2023-03-13T13:02:28.125Z,9.07
2023-03-13T13:05:00.513Z,9.06
2023-03-13T13:07:36.002Z,9.06
2023-03-13T13:46:01.947Z,9.12
2023-03-13T13:48:35.075Z,9.11
2023-03-13T13:51:11.075Z,9.11
2023-03-13T13:53:46.358Z,9.11
2023-03-13T13:56:30.683Z,9.12
2023-03-13T13:59:24.791Z,9.12
2023-03-13T14:02:03.625Z,9.14
2023-03-13T14:04:35.326Z,9.17
2023-03-13T14:07:08.241Z,9.18
2023-03-13T14:09:42.972Z,9.19
2023-03-13T14:12:29.392Z,9.20
2023-03-13T14:15:32.817Z,9.21
2023-03-13T14:18:15.499Z,9.24
2023-03-13T14:20:57.552Z,9.24
2023-03-13T14:23:32.177Z,9.23
2023-03-13T14:26:11.504Z,9.24
2023-03-13T14:28:42.702Z,9.24
2023-03-13T14:31:37.180Z,9.25
2023-03-13T14:34:13.206Z,9.24
2023-03-13T14:36:49.381Z,9.26
2023-03-13T14:39:36.118Z,9.28
2023-03-13T14:42:12.916Z,9.27
2023-03-13T14:44:42.346Z,9.28
2023-03-13T14:47:32.073Z,9.26
2023-03-13T14:50:07.098Z,9.29
2023-03-13T14:52:34.095Z,9.31
2023-03-13T14:55:25.929Z,9.32
2023-03-13T14:58:06.561Z,9.32
2023-03-13T15:00:38.495Z,9.31
2023-03-13T15:03:18.474Z,9.31
2023-03-13T15:06:01.855Z,9.32
2023-03-13T15:08:31.909Z,9.33
2023-03-13T15:11:01.515Z,9.34
2023-03-13T15:13:36.021Z,9.34
2023-03-13T15:16:14.095Z,9.36
2023-03-13T15:18:40.822Z,9.37
2023-03-13T15:21:10.203Z,9.35
2023-03-13T15:23:42.544Z,9.36
2023-03-13T15:26:10.060Z,9.38
2023-03-13T15:28:36.536Z,9.39
2023-03-13T15:31:05.657Z,9.38
2023-03-13T15:33:36.241Z,9.42
2023-03-13T15:36:03.458Z,9.44
2023-03-13T15:38:30.024Z,9.44
2023-03-13T15:41:04.521Z,9.43
2023-03-13T15:43:33.694Z,9.41
2023-03-13T15:46:05.526Z,9.39
2023-03-13T15:48:32.961Z,9.39
2023-03-13T15:51:04.695Z,9.40
2023-03-13T15:53:35.221Z,9.38
2023-03-13T15:56:10.084Z,9.38
2023-03-13T15:58:41.142Z,9.38
2023-03-13T16:01:13.905Z,9.37
2023-03-13T16:03:40.883Z,9.38
2023-03-13T16:06:29.058Z,9.36
2023-03-13T16:09:01.544Z,9.35
2023-03-13T16:11:29.287Z,9.36
2023-03-13T16:13:58.316Z,9.37
2023-03-13T16:16:29.001Z,9.38
2023-03-13T16:18:58.625Z,9.38
2023-03-13T16:21:33.900Z,9.40
2023-03-13T16:24:02.782Z,9.41
2023-03-13T16:26:31.173Z,9.42
2023-03-13T16:29:01.053Z,9.42
2023-03-13T16:31:35.718Z,9.44
2023-03-13T16:34:10.874Z,9.45
2023-03-13T16:36:42.334Z,9.46
2023-03-13T16:39:15.350Z,9.47
2023-03-13T16:41:44.247Z,9.49
2023-03-13T16:44:13.308Z,9.51
2023-03-13T16:46:55.544Z,9.51
2023-03-13T16:49:32.909Z,9.53
2023-03-13T16:52:00.004Z,9.53
2023-03-13T16:54:26.861Z,9.55
2023-03-13T16:56:53.518Z,9.56
2023-03-13T16:59:20.893Z,9.57
2023-03-13T17:01:55.163Z,9.58
2023-03-13T17:04:24.652Z,9.58
2023-03-13T17:06:53.905Z,9.59
2023-03-13T17:09:22.863Z,9.60
2023-03-13T17:11:49.812Z,9.60
2023-03-13T17:14:19.220Z,9.60
2023-03-13T17:16:48.467Z,9.61
2023-03-13T17:19:16.283Z,9.61
2023-03-13T17:21:45.338Z,9.61
2023-03-13T17:24:16.674Z,9.65
2023-03-13T17:26:43.481Z,9.65
2023-03-13T17:29:16.328Z,9.63
2023-03-13T17:31:46.255Z,9.62
2023-03-13T17:34:17.327Z,9.62
2023-03-13T17:36:48.180Z,9.61
2023-03-13T17:39:15.500Z,9.61
2023-03-13T17:41:42.273Z,9.61
2023-03-13T17:44:11.617Z,9.60
2023-03-13T17:46:46.422Z,9.62
2023-03-13T17:49:15.442Z,9.62
2023-03-13T17:51:45.664Z,9.62
2023-03-13T17:54:15.612Z,9.63
2023-03-13T17:56:42.794Z,9.63
2023-03-13T17:59:18.936Z,9.63
2023-03-13T18:01:48.340Z,9.64
2023-03-13T18:04:15.024Z,9.64
2023-03-13T18:06:50.176Z,9.65
2023-03-13T18:09:20.046Z,9.64
2023-03-13T18:11:52.053Z,9.63
2023-03-13T18:14:19.238Z,9.64
2023-03-13T18:16:51.569Z,9.66
2023-03-13T18:19:22.795Z,9.66
2023-03-13T18:21:53.354Z,9.67
2023-03-13T18:24:20.859Z,9.70
2023-03-13T18:26:48.491Z,9.71
2023-03-13T18:29:28.523Z,9.69
2023-03-13T18:32:00.163Z,9.70
2023-03-13T18:34:27.830Z,9.70
2023-03-13T18:37:03.270Z,9.72
2023-03-13T18:39:40.341Z,9.76
2023-03-13T18:42:07.520Z,9.76
2023-03-13T18:44:34.164Z,9.75
2023-03-13T18:47:01.196Z,9.76
2023-03-13T18:49:29.547Z,9.75
2023-03-13T18:52:02.001Z,9.69
2023-03-13T18:54:32.179Z,9.66
2023-03-13T18:57:03.792Z,9.67
2023-03-13T18:59:34.177Z,9.66
2023-03-13T19:02:06.429Z,9.66
2023-03-13T19:04:35.607Z,9.66
2023-03-13T19:07:12.382Z,9.66
2023-03-13T19:09:46.422Z,9.65
2023-03-13T19:12:18.453Z,9.64
2023-03-13T19:14:50.046Z,9.62
2023-03-13T19:17:28.865Z,9.65
2023-03-13T19:20:04.056Z,9.67
2023-03-13T19:22:35.854Z,9.67
2023-03-13T19:25:02.466Z,9.67
2023-03-13T19:27:36.418Z,9.61
2023-03-13T19:30:05.858Z,9.66
2023-03-13T19:32:33.084Z,9.66
2023-03-13T19:34:59.844Z,9.66
2023-03-13T19:37:26.935Z,9.66
2023-03-13T19:39:53.731Z,9.67
2023-03-13T19:42:22.661Z,9.68
2023-03-13T19:44:51.782Z,9.69
2023-03-13T19:47:18.239Z,9.68
2023-03-13T19:49:49.077Z,9.70
2023-03-13T19:52:15.629Z,9.71
2023-03-13T19:54:45.086Z,9.69
2023-03-13T19:57:14.113Z,9.69
2023-03-13T19:59:41.117Z,9.70
2023-03-13T20:02:09.388Z,9.70
2023-03-13T20:04:40.390Z,9.72
2023-03-13T20:07:11.685Z,9.72
2023-03-13T20:09:40.776Z,9.70
2023-03-13T20:12:09.145Z,9.71
2023-03-13T20:14:37.282Z,9.73
2023-03-13T20:17:06.498Z,9.70
2023-03-13T20:19:35.580Z,9.73
2023-03-13T20:22:09.062Z,9.74
2023-03-13T20:24:38.703Z,9.74
2023-03-13T20:27:05.100Z,9.69
2023-03-13T20:29:40.909Z,9.68
2023-03-13T20:32:07.734Z,9.69
2023-03-13T20:34:39.778Z,9.70
2023-03-13T20:37:11.968Z,9.70
2023-03-13T20:39:44.341Z,9.72
2023-03-13T20:42:15.714Z,9.72
2023-03-13T20:44:42.496Z,9.75
2023-03-13T20:47:09.295Z,9.76
2023-03-13T20:49:40.809Z,9.77
2023-03-13T20:52:09.363Z,9.79
2023-03-13T20:54:40.439Z,9.80
2023-03-13T20:57:09.702Z,9.80
2023-03-13T20:59:45.971Z,9.79
2023-03-13T21:02:15.086Z,9.79
2023-03-13T21:04:42.187Z,9.78
2023-03-13T21:07:13.780Z,9.78
2023-03-13T21:10:00.836Z,9.75
2023-03-13T21:12:28.493Z,9.74
2023-03-13T21:14:58.354Z,9.72
2023-03-13T21:17:29.974Z,9.70
2023-03-13T21:20:01.356Z,9.67
2023-03-13T21:22:31.033Z,9.66
2023-03-13T21:24:57.853Z,9.66
2023-03-13T21:27:26.466Z,9.64
2023-03-13T21:29:58.287Z,9.63
2023-03-13T21:32:27.666Z,9.59
2023-03-13T21:34:54.629Z,9.58
2023-03-13T21:37:22.942Z,9.59
2023-03-13T21:39:53.802Z,9.57
2023-03-13T21:42:20.265Z,9.57
2023-03-13T21:44:49.629Z,9.58
2023-03-13T21:47:26.186Z,9.58
2023-03-13T21:49:54.059Z,9.58
2023-03-13T21:52:22.239Z,9.57
2023-03-13T21:54:49.070Z,9.59
2023-03-13T21:57:18.092Z,9.59
2023-03-13T21:59:44.633Z,9.60
2023-03-13T22:02:12.499Z,9.60
2023-03-13T22:04:44.334Z,9.61
2023-03-13T22:07:15.524Z,9.61
2023-03-13T22:09:44.392Z,9.64
2023-03-13T22:12:11.065Z,9.63
2023-03-13T22:14:39.831Z,9.64
2023-03-13T22:17:16.046Z,9.66
2023-03-13T22:19:45.181Z,9.66
2023-03-13T22:22:16.732Z,9.65
2023-03-13T22:24:45.691Z,9.65
2023-03-13T22:27:19.476Z,9.66
2023-03-13T22:29:48.581Z,9.67
2023-03-13T22:32:17.985Z,9.68
2023-03-13T22:34:46.501Z,9.70
2023-03-13T22:37:21.574Z,9.72
2023-03-13T22:39:53.288Z,9.73
2023-03-13T22:42:23.679Z,9.74
2023-03-13T22:44:50.150Z,9.73
2023-03-13T22:47:16.703Z,9.75
2023-03-13T22:49:45.574Z,9.76
2023-03-13T22:52:16.639Z,9.78
2023-03-13T22:54:48.452Z,9.79
2023-03-13T22:57:17.435Z,9.81
2023-03-13T22:59:48.598Z,9.82
2023-03-13T23:02:15.094Z,9.81
2023-03-13T23:04:43.945Z,9.81
2023-03-13T23:07:15.233Z,9.82
2023-03-13T23:09:47.416Z,9.81
2023-03-13T23:12:18.678Z,9.81
2023-03-13T23:14:47.465Z,9.81
2023-03-13T23:17:19.105Z,9.81
2023-03-13T23:19:50.358Z,9.81
2023-03-13T23:22:21.115Z,9.80
2023-03-13T23:24:55.081Z,9.80
2023-03-13T23:27:21.532Z,9.81
2023-03-13T23:29:53.556Z,9.82
2023-03-13T23:32:22.564Z,9.82
2023-03-13T23:34:51.488Z,9.83
2023-03-13T23:37:21.088Z,9.84
2023-03-13T23:39:50.060Z,9.86
2023-03-13T23:42:16.680Z,9.88
2023-03-13T23:44:45.714Z,9.88
2023-03-13T23:47:13.088Z,9.91
2023-03-13T23:49:39.845Z,9.92
2023-03-13T23:52:08.757Z,9.93
2023-03-13T23:54:40.044Z,9.93
2023-03-13T23:57:06.625Z,9.94
2023-03-13T23:59:35.700Z,9.94
